ADDS TAF Board (Experimental) INFO Settings

IDs: Format: Expanded Condensed

KLGA - New York/La Guardia, NY, US

Issued at 1124 UTC 28 Feb 2015
Updated at: 1224 UTC 28 Feb 2015
Time1151Z 28/13Z 28/14Z 28/15Z 28/16Z 28/17Z 28/18Z 28/19Z 28/20Z 28/21Z 28/22Z 28/23Z 01/00Z 01/01Z
Type OBS PRVL PRVL PRVL PRVL PRVL PRVL PRVL PRVL PRVL PRVL PRVL PRVL PRVL
VIS 10 >6 >6 >6 >6 >6 >6 >6 >6 >6 >6 >6 >6 >6
CIG -- -- -- -- -- -- -- -- -- -- -- -- 200 200
Cover FEW FEW FEW FEW FEW FEW FEW FEW FEW FEW FEW FEW BKN BKN
FltCat VFR VFR VFR VFR VFR VFR VFR VFR VFR VFR VFR VFR VFR VFR
WX -- -- -- -- -- -- -- -- -- -- -- -- -- --
WDir 320 320 320 320 320 320 320 320 320 320 320 320 VRB VRB
WSpd 6 10 10 10 10 10 10 10 10 10 10 10 4 4
WGst -- -- -- -- -- -- -- -- -- -- -- -- -- --
R04/22
XWnd 6 10 10 10 10 10 10 10 10 10 10 10 VRB VRB
HWnd 2 3 3 3 3 3 3 3 3 3 3 3 VRB VRB
R13/31
XWnd 2 3 3 3 3 3 3 3 3 3 3 3 VRB VRB
HWnd -6 -10 -10 -10 -10 -10 -10 -10 -10 -10 -10 -10 VRB VRB

NOTE: TEMPO conditions in [brackets]. Keep in mind TEMPO conditions might be better (lower impact) than prevailing conditions.

Raw TAF
KLGA 281124Z 2812/0112 32010KT P6SM FEW250
  FM010000 VRB04KT P6SM BKN200


Raw METAR
KLGA 281151Z 32006KT 10SM FEW250 M09/M19 A3077 RMK AO2 SLP420 4/005 T10941189 11067 21094 51031
KLGA 281051Z 33006KT 10SM FEW250 M09/M19 A3075 RMK AO2 SLP413 T10941189
KLGA 280951Z 33007KT 10SM FEW250 M09/M19 A3072 RMK AO2 SLP400 T10891189

METAR Board
Radar Display
Forecast Discussion

TAF Board Legend

Potential Impact
Threat None Slight Moderate High
Visibility (sm) ≥5.1 5.1>X≥3 3>X≥1 <1
Ceiling (100 ft) ≥30.1 30.1>X≥10 10>X≥5 <5
Wind Speed (kt) <10 10≤X<20 20≤X<30 ≥30
Wind Gust (kt) <15 15≤X<25 25≤X<35 ≥35
Weather No Wx Reported VCTS,-TS,-FZRA,SN TS,FZRA +TS,+FZRA,+SN